createdAt,value
2023-02-07T00:00:50.132Z,57.53
2023-02-07T00:03:43.216Z,53.05
2023-02-07T00:06:17.899Z,38.47
2023-02-07T00:08:50.902Z,47.80
2023-02-07T00:11:24.159Z,36.67
2023-02-07T00:13:57.553Z,37.08
2023-02-07T00:16:30.598Z,47.83
2023-02-07T00:19:03.486Z,44.75
2023-02-07T00:21:36.644Z,48.17
2023-02-07T00:24:09.497Z,55.08
2023-02-07T00:26:42.913Z,50.50
2023-02-07T00:29:15.420Z,38.75
2023-02-07T00:31:48.497Z,40.45
2023-02-07T00:34:21.043Z,52.15
2023-02-07T00:36:53.976Z,64.97
2023-02-07T00:39:26.490Z,54.80
2023-02-07T00:41:59.419Z,48.75
2023-02-07T00:44:33.122Z,45.63
2023-02-07T00:47:06.297Z,43.53
2023-02-07T00:49:38.716Z,56.92
2023-02-07T00:52:12.542Z,65.15
2023-02-07T00:54:45.394Z,45.85
2023-02-07T00:57:18.437Z,42.45
2023-02-07T00:59:52.064Z,38.38
2023-02-07T01:02:24.950Z,48.95
2023-02-07T01:04:57.660Z,37.65
2023-02-07T01:07:30.582Z,46.03
2023-02-07T01:10:03.118Z,41.42
2023-02-07T01:12:36.149Z,40.78
2023-02-07T01:15:09.042Z,41.13
2023-02-07T01:17:41.913Z,46.63
2023-02-07T01:20:14.472Z,53.75
2023-02-07T01:22:47.436Z,53.78
2023-02-07T01:25:20.080Z,47.72
2023-02-07T01:27:53.093Z,42.25
2023-02-07T01:30:25.664Z,65.72
2023-02-07T01:32:58.708Z,48.95
2023-02-07T01:35:31.500Z,50.78
2023-02-07T01:38:04.476Z,60.95
2023-02-07T01:40:37.720Z,54.70
2023-02-07T01:43:17.641Z,47.10
2023-02-07T01:45:50.480Z,57.17
2023-02-07T01:48:37.027Z,60.78
2023-02-07T01:51:12.067Z,43.83
2023-02-07T01:53:47.650Z,75.15
2023-02-07T01:56:30.773Z,60.80
2023-02-07T01:59:06.874Z,63.60
2023-02-07T02:01:40.002Z,64.60
2023-02-07T02:04:13.265Z,52.45
2023-02-07T02:06:50.435Z,49.35
2023-02-07T02:12:53.982Z,61.33
2023-02-07T02:15:55.056Z,48.10
2023-02-07T02:18:55.163Z,56.92
2023-02-07T02:21:50.588Z,63.75
2023-02-07T02:24:47.705Z,61.00
2023-02-07T02:27:23.947Z,59.42
2023-02-07T02:30:05.692Z,58.90
2023-02-07T02:32:59.033Z,71.38
2023-02-07T02:35:48.298Z,41.20
2023-02-07T02:38:24.515Z,43.60
2023-02-07T02:40:57.079Z,45.78
2023-02-07T02:43:44.118Z,43.10
2023-02-07T02:46:21.867Z,57.17
2023-02-07T02:48:55.213Z,52.25
2023-02-07T02:51:31.729Z,61.13
2023-02-07T02:54:25.843Z,54.90
2023-02-07T02:57:06.060Z,54.72
2023-02-07T02:59:39.691Z,50.17
2023-02-07T03:02:33.026Z,43.58
2023-02-07T03:05:25.843Z,50.20
2023-02-07T03:08:17.065Z,54.03
2023-02-07T03:11:08.884Z,43.97
2023-02-07T03:14:02.334Z,58.03
2023-02-07T03:16:41.557Z,38.75
2023-02-07T03:19:19.692Z,37.80
2023-02-07T03:21:59.981Z,49.65
2023-02-07T03:24:34.746Z,44.55
2023-02-07T03:27:09.761Z,62.63
2023-02-07T03:29:44.514Z,68.30
2023-02-07T03:32:18.979Z,59.95
2023-02-07T03:35:11.896Z,66.03
2023-02-07T03:37:47.820Z,63.85
2023-02-07T03:40:20.863Z,63.88
2023-02-07T03:42:55.793Z,64.50
2023-02-07T03:45:28.439Z,68.68
2023-02-07T03:48:01.298Z,61.33
2023-02-07T03:50:33.884Z,64.88
2023-02-07T03:53:06.923Z,86.18
2023-02-07T03:55:39.721Z,38.78
2023-02-07T03:58:12.817Z,34.78
2023-02-07T04:00:45.369Z,73.53
2023-02-07T04:03:18.309Z,34.17
2023-02-07T04:05:51.261Z,58.28
2023-02-07T04:08:24.372Z,52.17
2023-02-07T04:10:58.172Z,51.00
2023-02-07T04:13:31.220Z,57.85
2023-02-07T04:16:05.259Z,48.95
2023-02-07T04:18:38.240Z,68.75
2023-02-07T04:21:10.755Z,65.82
2023-02-07T04:23:43.594Z,46.88
2023-02-07T04:26:16.591Z,56.42
2023-02-07T04:28:49.483Z,56.45
2023-02-07T04:31:22.060Z,45.53
2023-02-07T04:33:55.080Z,51.85
2023-02-07T04:36:30.092Z,32.50
2023-02-07T04:39:02.992Z,49.80
2023-02-07T04:41:35.528Z,66.60
2023-02-07T04:44:08.587Z,48.15
2023-02-07T04:46:41.117Z,67.30
2023-02-07T04:49:14.012Z,42.65
2023-02-07T04:51:46.464Z,46.67
2023-02-07T04:54:20.233Z,42.75
2023-02-07T04:56:52.719Z,55.25
2023-02-07T04:59:25.679Z,59.60
2023-02-07T05:01:58.134Z,38.70
2023-02-07T05:04:31.460Z,50.88
2023-02-07T05:07:03.987Z,43.55
2023-02-07T05:09:36.952Z,65.97
2023-02-07T05:12:09.613Z,118.57
2023-02-07T05:14:42.488Z,85.75
2023-02-07T05:17:15.269Z,78.93
2023-02-07T05:19:48.585Z,66.43
2023-02-07T05:22:21.065Z,60.67
2023-02-07T05:24:53.917Z,91.15
2023-02-07T05:27:26.454Z,83.30
2023-02-07T05:29:59.826Z,91.10
2023-02-07T05:32:51.465Z,84.20
2023-02-07T05:35:24.576Z,87.43
2023-02-07T05:37:57.102Z,63.05
2023-02-07T05:40:30.022Z,68.53
2023-02-07T05:43:02.942Z,69.50
2023-02-07T05:45:36.019Z,116.30
2023-02-07T05:48:08.875Z,92.20
2023-02-07T05:50:41.967Z,59.20
2023-02-07T05:53:14.916Z,70.68
2023-02-07T05:55:50.932Z,81.43
2023-02-07T05:58:23.402Z,62.72
2023-02-07T06:00:56.284Z,51.08
2023-02-07T06:03:28.840Z,55.40
2023-02-07T06:06:01.771Z,75.32
2023-02-07T06:08:34.230Z,63.13
2023-02-07T06:11:07.091Z,56.50
2023-02-07T06:13:39.739Z,78.10
2023-02-07T06:16:12.662Z,69.35
2023-02-07T06:18:45.145Z,69.65
2023-02-07T06:21:18.037Z,55.10
2023-02-07T06:23:52.061Z,50.70
2023-02-07T06:26:25.204Z,86.10
2023-02-07T06:28:57.694Z,73.32
2023-02-07T06:31:31.203Z,77.65
2023-02-07T06:34:03.976Z,96.47
2023-02-07T06:36:36.886Z,92.32
2023-02-07T06:39:09.700Z,113.57
2023-02-07T06:41:42.626Z,95.47
2023-02-07T06:44:15.296Z,82.63
2023-02-07T06:46:48.289Z,94.20
2023-02-07T06:49:20.944Z,82.40
2023-02-07T06:51:53.766Z,77.43
2023-02-07T06:54:26.417Z,49.90
2023-02-07T06:56:59.257Z,98.28
2023-02-07T06:59:31.797Z,94.15
2023-02-07T07:02:05.009Z,73.35
2023-02-07T07:04:37.757Z,61.58
2023-02-07T07:07:10.852Z,60.70
2023-02-07T07:09:43.351Z,50.63
2023-02-07T07:12:16.154Z,68.57
2023-02-07T07:14:49.228Z,56.05
2023-02-07T07:17:22.138Z,58.25
2023-02-07T07:19:54.742Z,78.00
2023-02-07T07:22:27.689Z,55.35
2023-02-07T07:25:00.400Z,71.60
2023-02-07T07:27:33.453Z,64.63
2023-02-07T07:30:06.229Z,59.03
2023-02-07T07:32:39.343Z,68.82
2023-02-07T07:35:12.349Z,122.95
2023-02-07T07:37:45.209Z,118.28
2023-02-07T07:40:17.767Z,111.15
2023-02-07T07:42:50.754Z,102.95
2023-02-07T07:45:35.671Z,104.63
2023-02-07T07:48:08.642Z,126.20
2023-02-07T07:50:41.718Z,91.00
2023-02-07T07:53:16.324Z,92.03
2023-02-07T07:55:49.742Z,95.85
2023-02-07T07:58:23.258Z,78.07
2023-02-07T08:00:56.308Z,89.20
2023-02-07T08:03:29.280Z,89.75
2023-02-07T08:06:01.869Z,87.70
2023-02-07T08:08:35.090Z,84.95
2023-02-07T08:11:09.369Z,97.25
2023-02-07T08:13:42.508Z,66.28
2023-02-07T08:16:15.174Z,64.25
2023-02-07T08:18:48.050Z,65.55
2023-02-07T08:21:20.657Z,80.97
2023-02-07T08:23:54.931Z,56.25
2023-02-07T08:26:27.460Z,57.40
2023-02-07T08:29:00.245Z,50.47
2023-02-07T08:31:33.126Z,57.97
2023-02-07T08:34:06.416Z,70.95
2023-02-07T08:36:39.784Z,79.03
2023-02-07T08:39:12.819Z,44.15
2023-02-07T08:41:45.389Z,56.60
2023-02-07T08:44:18.382Z,64.03
2023-02-07T08:46:50.930Z,47.13
2023-02-07T08:49:23.770Z,45.80
2023-02-07T08:51:56.944Z,42.25
2023-02-07T08:54:29.880Z,70.63
2023-02-07T08:57:02.580Z,64.35
2023-02-07T08:59:35.475Z,80.28
2023-02-07T09:02:08.122Z,105.38
2023-02-07T09:04:43.099Z,103.63
2023-02-07T09:07:15.731Z,69.25
2023-02-07T09:09:48.712Z,48.38
2023-02-07T09:12:21.449Z,42.42
2023-02-07T09:14:54.405Z,41.38
2023-02-07T09:17:26.920Z,55.20
2023-02-07T09:20:00.061Z,33.45
2023-02-07T09:22:34.038Z,35.38
2023-02-07T09:25:07.108Z,59.70
2023-02-07T09:27:39.846Z,63.15
2023-02-07T09:30:12.967Z,49.53
2023-02-07T09:32:45.474Z,44.70
2023-02-07T09:35:18.467Z,52.47
2023-02-07T09:37:53.213Z,48.65
2023-02-07T09:40:26.199Z,34.92
2023-02-07T09:43:01.169Z,43.25
2023-02-07T09:45:35.185Z,35.55
2023-02-07T09:48:12.418Z,26.30
2023-02-07T09:50:49.281Z,33.15
2023-02-07T09:53:37.481Z,45.25
2023-02-07T09:56:11.283Z,41.25
2023-02-07T09:58:46.428Z,28.98
2023-02-07T10:01:22.169Z,29.17
2023-02-07T10:04:00.554Z,26.98
2023-02-07T10:06:33.490Z,31.90
2023-02-07T10:09:09.269Z,37.47
2023-02-07T10:11:51.492Z,46.40
2023-02-07T10:14:30.293Z,37.35
2023-02-07T10:17:22.225Z,34.58
2023-02-07T10:20:14.447Z,57.00
2023-02-07T10:22:54.770Z,81.05
2023-02-07T10:25:41.649Z,38.47
2023-02-07T10:28:14.707Z,35.65
2023-02-07T10:30:55.687Z,29.95
2023-02-07T10:33:31.603Z,23.83
2023-02-07T10:36:05.574Z,32.88
2023-02-07T10:38:43.361Z,29.88
2023-02-07T10:41:45.487Z,33.22
2023-02-07T10:44:21.180Z,37.15
2023-02-07T10:47:17.094Z,31.23
2023-02-07T10:49:51.666Z,37.78
2023-02-07T10:52:35.855Z,40.95
2023-02-07T10:55:10.158Z,37.22
2023-02-07T10:57:59.026Z,24.90
2023-02-07T11:00:34.995Z,26.45
2023-02-07T11:03:13.304Z,35.00
2023-02-07T11:05:52.818Z,14.32
2023-02-07T11:08:27.072Z,26.25
2023-02-07T11:11:01.082Z,27.70
2023-02-07T11:13:45.439Z,25.98
2023-02-07T11:16:20.132Z,29.50
2023-02-07T11:19:06.471Z,22.98
2023-02-07T11:21:43.550Z,19.13
2023-02-07T11:24:21.745Z,25.50
2023-02-07T11:27:02.467Z,22.38
2023-02-07T11:29:37.960Z,16.35
2023-02-07T11:32:13.939Z,60.58
2023-02-07T11:34:46.852Z,24.13
2023-02-07T11:37:35.320Z,24.13
2023-02-07T11:40:20.103Z,41.22
2023-02-07T11:42:59.324Z,28.65
2023-02-07T11:45:32.823Z,39.22
2023-02-07T11:48:06.720Z,21.58
2023-02-07T11:50:41.339Z,29.67
2023-02-07T11:53:31.297Z,25.85
2023-02-07T11:56:04.417Z,23.90
2023-02-07T11:58:49.711Z,30.23
2023-02-07T12:01:32.169Z,29.52
2023-02-07T12:04:28.444Z,29.08
2023-02-07T12:07:10.155Z,23.48
2023-02-07T12:09:54.992Z,21.33
2023-02-07T12:12:33.304Z,18.30
2023-02-07T12:15:09.209Z,34.05
2023-02-07T12:17:50.591Z,30.23
2023-02-07T12:23:07.804Z,31.35
2023-02-07T12:25:53.025Z,31.30
2023-02-07T12:28:44.401Z,28.65
2023-02-07T12:31:26.556Z,28.92
2023-02-07T12:34:04.549Z,24.27
2023-02-07T12:36:39.831Z,35.47
2023-02-07T12:39:18.954Z,30.30
2023-02-07T12:42:01.520Z,44.75
2023-02-07T12:44:36.212Z,44.88
2023-02-07T12:47:14.807Z,34.97
2023-02-07T12:49:56.214Z,23.73
2023-02-07T12:55:20.847Z,23.13
2023-02-07T12:58:14.219Z,41.90
2023-02-07T13:01:05.483Z,34.78
2023-02-07T13:03:56.503Z,21.38
2023-02-07T13:06:37.686Z,23.95
2023-02-07T13:09:16.673Z,27.60
2023-02-07T13:12:08.209Z,34.17
2023-02-07T13:14:43.932Z,27.25
2023-02-07T13:17:16.460Z,34.58
2023-02-07T13:19:49.263Z,23.13
2023-02-07T13:22:36.395Z,28.10
2023-02-07T13:25:14.567Z,52.15
2023-02-07T13:27:47.413Z,18.98
2023-02-07T13:30:21.103Z,18.70
2023-02-07T13:32:54.241Z,27.75
2023-02-07T13:35:30.301Z,45.97
2023-02-07T13:38:07.589Z,43.80
2023-02-07T13:40:55.907Z,61.42
2023-02-07T13:43:34.666Z,28.13
2023-02-07T13:46:09.231Z,38.72
2023-02-07T13:49:00.561Z,28.75
2023-02-07T13:51:39.397Z,15.65
2023-02-07T13:54:31.261Z,20.88
2023-02-07T13:57:23.061Z,34.03
2023-02-07T14:00:05.103Z,35.95
2023-02-07T14:02:54.451Z,26.27
2023-02-07T14:05:27.116Z,28.75
2023-02-07T14:08:04.836Z,22.35
2023-02-07T14:10:46.412Z,20.50
2023-02-07T14:13:22.638Z,26.05
2023-02-07T14:16:07.494Z,22.10
2023-02-07T14:18:48.138Z,30.23
2023-02-07T14:21:21.339Z,32.97
2023-02-07T14:24:03.581Z,28.33
2023-02-07T14:26:36.974Z,32.30
2023-02-07T14:29:25.125Z,29.80
2023-02-07T14:32:02.344Z,29.80
2023-02-07T14:34:53.837Z,37.28
2023-02-07T14:37:38.524Z,33.30
2023-02-07T14:40:19.893Z,28.50
2023-02-07T14:43:16.079Z,28.45
2023-02-07T14:45:52.100Z,37.42
2023-02-07T14:48:30.924Z,33.47
2023-02-07T14:51:05.990Z,34.60
2023-02-07T14:53:39.592Z,31.77
2023-02-07T14:56:17.407Z,32.78
2023-02-07T14:58:51.173Z,34.63
2023-02-07T15:01:24.705Z,29.30
2023-02-07T15:04:01.415Z,31.33
2023-02-07T15:06:39.579Z,23.08
2023-02-07T15:09:27.824Z,27.05
2023-02-07T15:12:13.011Z,35.47
2023-02-07T15:14:57.399Z,33.33
2023-02-07T15:17:43.472Z,31.98
2023-02-07T15:20:18.062Z,27.65
2023-02-07T15:22:52.529Z,27.70
2023-02-07T15:25:26.940Z,23.33
2023-02-07T15:28:01.575Z,33.78
2023-02-07T15:30:34.386Z,26.25
2023-02-07T15:33:12.178Z,34.08
2023-02-07T15:35:44.768Z,25.90
2023-02-07T15:38:21.256Z,41.25
2023-02-07T15:40:54.814Z,24.85
2023-02-07T15:43:34.606Z,36.05
2023-02-07T15:46:11.653Z,30.92
2023-02-07T15:48:47.910Z,34.80
2023-02-07T15:51:21.694Z,29.42
2023-02-07T15:53:56.738Z,41.15
2023-02-07T15:56:30.252Z,32.63
2023-02-07T15:59:10.366Z,43.72
2023-02-07T16:01:43.094Z,64.80
2023-02-07T16:04:16.433Z,91.43
2023-02-07T16:06:57.748Z,65.00
2023-02-07T16:09:36.523Z,44.80
2023-02-07T16:12:27.501Z,43.58
2023-02-07T16:15:00.919Z,51.05
2023-02-07T16:17:44.026Z,75.90
2023-02-07T16:20:16.977Z,42.03
2023-02-07T16:22:49.723Z,59.92
2023-02-07T16:25:23.587Z,39.83
2023-02-07T16:27:56.152Z,54.70
2023-02-07T16:30:31.383Z,62.10
2023-02-07T16:33:04.816Z,50.65
2023-02-07T16:35:37.774Z,31.75
2023-02-07T16:38:10.353Z,51.00
2023-02-07T16:40:43.756Z,45.03
2023-02-07T16:43:36.514Z,64.20
2023-02-07T16:46:09.433Z,29.17
2023-02-07T16:48:41.928Z,28.35
2023-02-07T16:51:16.854Z,68.88
2023-02-07T16:53:49.772Z,73.78
2023-02-07T16:56:26.850Z,42.72
2023-02-07T16:58:59.498Z,34.92
2023-02-07T17:01:33.618Z,28.77
2023-02-07T17:04:06.097Z,31.73
2023-02-07T17:06:39.890Z,35.40
2023-02-07T17:09:24.611Z,27.67
2023-02-07T17:11:57.617Z,40.35
2023-02-07T17:14:30.169Z,38.03
2023-02-07T17:17:03.316Z,26.13
2023-02-07T17:19:35.793Z,28.63
2023-02-07T17:22:08.690Z,38.60
2023-02-07T17:24:41.405Z,27.13
2023-02-07T17:27:14.286Z,25.88
2023-02-07T17:29:46.788Z,16.30
2023-02-07T17:32:19.618Z,16.25
2023-02-07T17:34:52.255Z,12.55
2023-02-07T17:37:25.112Z,21.83
2023-02-07T17:39:57.604Z,22.92
2023-02-07T17:42:30.506Z,17.08
2023-02-07T17:45:03.180Z,20.60
2023-02-07T17:47:36.158Z,30.73
2023-02-07T17:50:13.643Z,19.25
2023-02-07T17:52:46.952Z,16.60
2023-02-07T17:55:19.480Z,25.83
2023-02-07T17:57:52.429Z,24.92
2023-02-07T18:00:29.736Z,21.38
2023-02-07T18:03:03.033Z,26.35
2023-02-07T18:05:36.069Z,26.17
2023-02-07T18:08:12.433Z,17.27
2023-02-07T18:10:44.941Z,13.05
2023-02-07T18:13:18.057Z,23.67
2023-02-07T18:15:51.282Z,23.05
2023-02-07T18:18:24.090Z,24.30
2023-02-07T18:20:57.375Z,26.45
2023-02-07T18:23:30.295Z,14.00
2023-02-07T18:26:04.854Z,18.38
2023-02-07T18:28:37.905Z,20.85
2023-02-07T18:31:14.798Z,25.05
2023-02-07T18:33:48.249Z,18.48
2023-02-07T18:36:21.854Z,21.65
2023-02-07T18:38:54.733Z,20.40
2023-02-07T18:41:27.157Z,31.70
2023-02-07T18:44:00.135Z,24.70
2023-02-07T18:46:33.251Z,20.45
2023-02-07T18:49:06.314Z,21.42
2023-02-07T18:51:39.129Z,20.23
2023-02-07T18:54:12.101Z,28.88
2023-02-07T18:56:52.160Z,33.45
2023-02-07T18:59:25.191Z,25.15
2023-02-07T19:01:57.805Z,24.70
2023-02-07T19:04:31.534Z,21.98
2023-02-07T19:07:06.574Z,22.48
2023-02-07T19:09:39.600Z,24.65
2023-02-07T19:12:12.095Z,16.48
2023-02-07T19:14:45.021Z,15.82
2023-02-07T19:17:17.606Z,23.35
2023-02-07T19:19:51.985Z,19.67
2023-02-07T19:22:34.909Z,18.00
2023-02-07T19:25:08.233Z,21.50
2023-02-07T19:27:40.784Z,14.80
2023-02-07T19:30:13.801Z,20.92
2023-02-07T19:32:46.345Z,18.40
2023-02-07T19:35:19.642Z,23.33
2023-02-07T19:37:52.112Z,16.55
2023-02-07T19:40:25.002Z,20.95
2023-02-07T19:42:57.476Z,24.05
2023-02-07T19:45:30.523Z,20.20
2023-02-07T19:48:03.137Z,19.25
2023-02-07T19:50:35.927Z,18.98
2023-02-07T19:53:08.528Z,21.98
2023-02-07T19:55:41.686Z,16.65
2023-02-07T19:58:14.188Z,13.27
2023-02-07T20:00:47.517Z,21.15
2023-02-07T20:03:20.019Z,23.13
2023-02-07T20:05:55.626Z,22.10
2023-02-07T20:08:28.760Z,22.27
2023-02-07T20:11:09.250Z,25.17
2023-02-07T20:13:43.354Z,51.33
2023-02-07T20:16:17.855Z,22.08
2023-02-07T20:18:52.329Z,22.00
2023-02-07T20:21:26.197Z,32.63
2023-02-07T20:23:59.013Z,32.45
2023-02-07T20:26:39.754Z,21.50
2023-02-07T20:29:13.886Z,20.55
2023-02-07T20:31:47.553Z,23.45
2023-02-07T20:34:20.614Z,55.00
2023-02-07T20:36:53.825Z,31.65
2023-02-07T20:39:27.029Z,22.85
2023-02-07T20:41:59.819Z,22.13
2023-02-07T20:44:32.407Z,19.20
2023-02-07T20:47:05.424Z,15.52
2023-02-07T20:49:38.529Z,22.52
2023-02-07T20:52:11.435Z,28.08
2023-02-07T20:54:44.606Z,20.65
2023-02-07T20:57:17.535Z,16.77
2023-02-07T20:59:50.082Z,21.88
2023-02-07T21:02:22.953Z,16.20
2023-02-07T21:04:55.760Z,15.15
2023-02-07T21:07:28.704Z,27.48
2023-02-07T21:10:01.357Z,20.17
2023-02-07T21:12:34.426Z,14.98
2023-02-07T21:15:06.976Z,16.40
2023-02-07T21:17:39.986Z,19.35
2023-02-07T21:20:13.028Z,24.15
2023-02-07T21:22:45.930Z,28.08
2023-02-07T21:25:18.448Z,22.55
2023-02-07T21:27:51.379Z,37.50
2023-02-07T21:30:23.993Z,38.40
2023-02-07T21:32:56.926Z,35.00
2023-02-07T21:35:29.373Z,35.17
2023-02-07T21:38:02.401Z,30.77
2023-02-07T21:40:34.851Z,29.23
2023-02-07T21:43:07.889Z,19.55
2023-02-07T21:45:40.364Z,29.48
2023-02-07T21:48:13.211Z,25.60
2023-02-07T21:50:45.996Z,24.33
2023-02-07T21:53:18.828Z,37.55
2023-02-07T21:55:51.346Z,22.95
2023-02-07T21:58:24.190Z,31.63
2023-02-07T22:00:56.670Z,15.25
2023-02-07T22:03:29.601Z,11.30
2023-02-07T22:06:02.322Z,19.98
2023-02-07T22:08:35.640Z,18.88
2023-02-07T22:11:09.470Z,14.52
2023-02-07T22:13:43.062Z,16.92
2023-02-07T22:16:17.174Z,30.73
2023-02-07T22:18:51.697Z,19.13
2023-02-07T22:21:28.248Z,20.27
2023-02-07T22:24:01.594Z,13.70
2023-02-07T22:26:34.741Z,27.67
2023-02-07T22:29:08.758Z,38.95
2023-02-07T22:31:42.003Z,31.30
2023-02-07T22:34:14.977Z,21.45
2023-02-07T22:36:47.548Z,16.25
2023-02-07T22:39:21.102Z,14.63
2023-02-07T22:41:55.139Z,15.13
2023-02-07T22:44:28.371Z,15.95
2023-02-07T22:47:00.899Z,17.92
2023-02-07T22:49:34.010Z,11.90
2023-02-07T22:52:06.420Z,17.65
2023-02-07T22:54:39.373Z,17.27
2023-02-07T22:57:13.639Z,13.02
2023-02-07T22:59:46.549Z,11.60
2023-02-07T23:02:19.096Z,14.63
2023-02-07T23:04:52.577Z,18.23
2023-02-07T23:07:26.873Z,16.25
2023-02-07T23:09:59.894Z,16.80
2023-02-07T23:12:32.547Z,14.98
2023-02-07T23:15:05.800Z,17.05
2023-02-07T23:17:39.678Z,21.15
2023-02-07T23:20:12.524Z,15.10
2023-02-07T23:22:45.007Z,18.83
2023-02-07T23:25:18.135Z,19.45
2023-02-07T23:27:50.642Z,18.15
2023-02-07T23:30:23.747Z,14.05
2023-02-07T23:32:56.334Z,17.70
2023-02-07T23:35:32.694Z,20.27
2023-02-07T23:38:06.596Z,17.02
2023-02-07T23:40:39.784Z,21.80
2023-02-07T23:43:12.552Z,22.73
2023-02-07T23:45:45.436Z,30.55
2023-02-07T23:48:18.049Z,32.63
2023-02-07T23:50:51.991Z,25.67
2023-02-07T23:53:25.006Z,17.30
2023-02-07T23:55:58.135Z,49.72
2023-02-07T23:58:30.996Z,47.28
